| time (UTC) | temp C | wind direction | speed KPH | gust KPH | rain 1hr cm | rain 24hr cm | rain mn cm | humidity % | barometer mb |
| 20260508122003 | 12 | 302 | 1.6 | 9.7 | 0.00 | 1.73 | 0.69 | 78 | 1012.9 |
| 20260508121503 | 11 | 76 | 1.6 | 4.8 | 0.00 | 1.73 | 0.69 | 78 | 1013.0 |
| 20260508121003 | 11 | 79 | 1.6 | 4.8 | 0.00 | 1.73 | 0.69 | 78 | 1013.0 |
| 20260508120503 | 11 | 53 | 3.2 | 9.7 | 0.00 | 1.73 | 0.69 | 79 | 1013.2 |
| 20260508120004 | 11 | 13 | 3.2 | 9.7 | 0.00 | 1.73 | 0.69 | 80 | 1013.5 |
| 20260508115524 | 11 | 32 | 3.2 | 6.4 | 0.00 | 1.73 | 0.69 | 81 | 1013.3 |
| 20260508115024 | 11 | 37 | 3.2 | 6.4 | 0.00 | 1.73 | 0.69 | 80 | 1013.5 |
| 20260508114503 | 11 | 43 | 3.2 | 6.4 | 0.00 | 1.73 | 0.69 | 83 | 1013.3 |
| 20260508114003 | 11 | 30 | 3.2 | 6.4 | 0.00 | 1.73 | 0.69 | 84 | 1013.3 |
| 20260508113503 | 10 | 10 | 3.2 | 6.4 | 0.00 | 1.73 | 0.69 | 84 | 1013.4 |
| 20260508113004 | 10 | 9 | 3.2 | 6.4 | 0.00 | 1.73 | 0.69 | 82 | 1013.4 |
| 20260508112503 | 10 | 356 | 3.2 | 4.8 | 0.00 | 1.73 | 0.69 | 84 | 1013.5 |
| 20260508112004 | 10 | 343 | 3.2 | 6.4 | 0.00 | 1.73 | 0.69 | 87 | 1013.7 |
| 20260508111503 | 10 | 343 | 1.6 | 6.4 | 0.00 | 1.73 | 0.69 | 88 | 1013.6 |
| 20260508111003 | 10 | 353 | 1.6 | 3.2 | 0.00 | 1.73 | 0.69 | 87 | 1013.6 |
| 20260508110503 | 10 | 57 | 0.0 | 3.2 | 0.00 | 1.73 | 0.69 | 87 | 1013.6 |
| 20260508110024 | 10 | 138 | 0.0 | 1.6 | 0.00 | 1.73 | 0.69 | 86 | 1013.6 |
| 20260508105503 | 10 | 211 | 0.0 | 1.6 | 0.00 | 1.73 | 0.69 | 88 | 1013.8 |
| 20260508105003 | 10 | 254 | 0.0 | 3.2 | 0.00 | 1.73 | 0.69 | 89 | 1013.8 |
| 20260508104503 | 10 | 231 | 1.6 | 4.8 | 0.03 | 1.73 | 0.69 | 87 | 1013.8 |
| 20260508104003 | 10 | 191 | 1.6 | 4.8 | 0.03 | 1.73 | 0.69 | 87 | 1013.8 |
| 20260508103503 | 9 | 158 | 1.6 | 4.8 | 0.05 | 1.73 | 0.69 | 91 | 1013.6 |
| 20260508103024 | 10 | 148 | 1.6 | 4.8 | 0.05 | 1.73 | 0.69 | 90 | 1013.7 |
| 20260508102524 | 10 | 141 | 1.6 | 4.8 | 0.08 | 1.73 | 0.69 | 91 | 1013.9 |
| 20260508102003 | 10 | 225 | 1.6 | 6.4 | 0.15 | 1.73 | 0.69 | 92 | 1013.9 |
| 20260508101525 | 10 | 228 | 3.2 | 11.3 | 0.18 | 1.73 | 0.69 | 92 | 1013.9 |
| 20260508101003 | 10 | 231 | 4.8 | 14.5 | 0.18 | 1.73 | 0.69 | 92 | 1013.8 |
| 20260508100503 | 10 | 238 | 6.4 | 14.5 | 0.18 | 1.73 | 0.69 | 92 | 1013.8 |
| 20260508100004 | 10 | 255 | 6.4 | 11.3 | 0.18 | 1.73 | 0.69 | 92 | 1013.8 |
| 20260508095503 | 10 | 262 | 4.8 | 11.3 | 0.18 | 1.73 | 0.66 | 94 | 1013.7 |
| 20260508095003 | 10 | 234 | 3.2 | 9.7 | 0.18 | 1.73 | 0.66 | 96 | 1013.8 |
| 20260508094524 | 10 | 221 | 3.2 | 11.3 | 0.18 | 1.70 | 0.66 | 96 | 1013.9 |
| 20260508094003 | 10 | 225 | 4.8 | 14.5 | 0.20 | 1.70 | 0.66 | 96 | 1013.9 |
| 20260508093503 | 10 | 224 | 4.8 | 11.3 | 0.25 | 1.68 | 0.64 | 96 | 1014.0 |
| 20260508093003 | 10 | 196 | 4.8 | 12.9 | 0.23 | 1.68 | 0.61 | 96 | 1013.7 |
| 20260508092503 | 10 | 176 | 4.8 | 12.9 | 0.23 | 1.65 | 0.61 | 95 | 1013.8 |
| 20260508092003 | 10 | 163 | 1.6 | 12.9 | 0.15 | 1.57 | 0.51 | 95 | 1013.7 |
| 20260508091503 | 10 | 141 | 1.6 | 6.4 | 0.13 | 1.55 | 0.51 | 94 | 1013.1 |
| 20260508091003 | 10 | 138 | 1.6 | 6.4 | 0.13 | 1.55 | 0.51 | 95 | 1012.9 |
| 20260508090503 | 10 | 116 | 1.6 | 4.8 | 0.10 | 1.55 | 0.48 | 95 | 1013.0 |
| 20260508090024 | 10 | 82 | 1.6 | 4.8 | 0.10 | 1.55 | 0.48 | 94 | 1013.2 |
| 20260508085503 | 10 | 80 | 1.6 | 4.8 | 0.10 | 1.52 | 0.48 | 95 | 1013.0 |
| 20260508085003 | 10 | 56 | 1.6 | 6.4 | 0.10 | 1.52 | 0.48 | 96 | 1013.1 |
| 20260508084524 | 10 | 32 | 3.2 | 11.3 | 0.10 | 1.52 | 0.48 | 96 | 1013.1 |
| 20260508084003 | 10 | 43 | 3.2 | 11.3 | 0.08 | 1.50 | 0.46 | 96 | 1012.8 |
| 20260508083524 | 10 | 80 | 1.6 | 6.4 | 0.03 | 1.42 | 0.38 | 96 | 1013.4 |
| 20260508083003 | 10 | 85 | 1.6 | 3.2 | 0.05 | 1.42 | 0.38 | 97 | 1013.3 |
| 20260508082524 | 10 | 64 | 1.6 | 3.2 | 0.10 | 1.42 | 0.38 | 98 | 1013.2 |
| 20260508082003 | 10 | 70 | 1.6 | 4.8 | 0.10 | 1.42 | 0.38 | 99 | 1013.0 |
| 20260508081504 | 10 | 37 | 1.6 | 4.8 | 0.10 | 1.42 | 0.38 | 99 | 1013.1 |
| 20260508081003 | 10 | 19 | 1.6 | 4.8 | 0.15 | 1.42 | 0.38 | 99 | 1013.2 |
| 20260508080503 | 10 | 36 | 1.6 | 4.8 | 0.18 | 1.42 | 0.38 | 99 | 1013.0 |
| 20260508080004 | 10 | 68 | 1.6 | 4.8 | 0.20 | 1.42 | 0.38 | 99 | 1013.0 |
| 20260508075503 | 10 | 45 | 1.6 | 6.4 | 0.25 | 1.42 | 0.38 | 99 | 1013.0 |
| 20260508075003 | 9 | 323 | 3.2 | 6.4 | 0.28 | 1.42 | 0.38 | 99 | 1013.1 |
| 20260508074503 | 9 | 311 | 4.8 | 9.7 | 0.30 | 1.42 | 0.38 | 99 | 1012.7 |
| 20260508074003 | 9 | 314 | 4.8 | 9.7 | 0.30 | 1.42 | 0.38 | 99 | 1012.9 |
| 20260508073503 | 9 | 271 | 3.2 | 4.8 | 0.30 | 1.42 | 0.36 | 99 | 1013.2 |
| 20260508073003 | 9 | 243 | 3.2 | 9.7 | 0.25 | 1.37 | 0.33 | 99 | 1013.4 |
| 20260508072504 | 10 | 234 | 3.2 | 9.7 | 0.23 | 1.35 | 0.28 | 99 | 1013.5 |
| 20260508072024 | 10 | 241 | 3.2 | 9.7 | 0.23 | 1.32 | 0.28 | 99 | 1013.4 |
| 20260508071503 | 10 | 239 | 3.2 | 6.4 | 0.23 | 1.32 | 0.28 | 99 | 1013.3 |
| 20260508071003 | 10 | 222 | 1.6 | 4.8 | 0.18 | 1.27 | 0.23 | 99 | 1013.4 |
| 20260508070503 | 10 | 223 | 1.6 | 4.8 | 0.15 | 1.24 | 0.20 | 99 | 1013.3 |
| 20260508070004 | 10 | 222 | 1.6 | 4.8 | 0.13 | 1.22 | 0.18 | 99 | 1013.1 |
| 20260508065503 | 10 | 215 | 1.6 | 4.8 | 0.08 | 1.17 | 0.13 | 99 | 1013.2 |
| 20260508065003 | 10 | 207 | 1.6 | 4.8 | 0.05 | 1.14 | 0.10 | 99 | 1013.1 |
| 20260508064503 | 10 | 194 | 0.0 | 4.8 | 0.03 | 1.12 | 0.05 | 99 | 1012.9 |
| 20260508064003 | 10 | 184 | 0.0 | 4.8 | 0.03 | 1.12 | 0.05 | 99 | 1012.7 |
| 20260508063524 | 10 | 205 | 0.0 | 1.6 | 0.03 | 1.12 | 0.05 | 99 | 1012.8 |
| 20260508063003 | 10 | 255 | 0.0 | 3.2 | 0.03 | 1.12 | 0.05 | 99 | 1012.6 |
| 20260508062503 | 10 | 252 | 0.0 | 3.2 | 0.00 | 1.09 | 0.05 | 99 | 1012.4 |
| 20260508062004 | 10 | 226 | 0.0 | 3.2 | 0.00 | 1.09 | 0.05 | 99 | 1012.5 |
| 20260508061503 | 10 | 227 | 1.6 | 6.4 | 0.00 | 1.09 | 0.05 | 99 | 1012.5 |
| 20260508061003 | 10 | 233 | 3.2 | 9.7 | 0.00 | 1.09 | 0.05 | 99 | 1012.2 |
| 20260508060503 | 10 | 231 | 3.2 | 9.7 | 0.00 | 1.09 | 0.05 | 99 | 1012.4 |
| 20260508060004 | 10 | 214 | 1.6 | 4.8 | 0.00 | 1.09 | 0.05 | 99 | 1012.2 |
| 20260508055503 | 10 | 210 | 1.6 | 3.2 | 0.00 | 1.09 | 0.05 | 99 | 1012.1 |
| 20260508055003 | 10 | 218 | 1.6 | 3.2 | 0.00 | 1.09 | 0.05 | 99 | 1011.9 |
| 20260508054503 | 10 | 228 | 1.6 | 3.2 | 0.00 | 1.09 | 0.05 | 99 | 1011.8 |
| 20260508054024 | 9 | 231 | 1.6 | 3.2 | 0.00 | 1.09 | 0.05 | 99 | 1012.0 |
| 20260508053503 | 9 | 213 | 1.6 | 3.2 | 0.00 | 1.09 | 0.05 | 99 | 1011.9 |
| 20260508053024 | 9 | 89 | 0.0 | 1.6 | 0.00 | 1.09 | 0.05 | 99 | 1011.8 |
| 20260508052503 | 9 | 88 | 0.0 | 1.6 | 0.00 | 1.09 | 0.05 | 99 | 1011.8 |
| 20260508052024 | 9 | 0 | 0.0 | 0.0 | 0.00 | 1.09 | 0.05 | 99 | 1011.8 |
| 20260508051503 | 9 | 16 | 0.0 | 3.2 | 0.00 | 1.09 | 0.05 | 99 | 1011.6 |
| 20260508051003 | 9 | 320 | 0.0 | 3.2 | 0.00 | 1.09 | 0.05 | 99 | 1011.5 |
| 20260508050503 | 9 | 303 | 0.0 | 1.6 | 0.00 | 1.09 | 0.05 | 99 | 1011.5 |
| 20260508050004 | 9 | 0 | 0.0 | 0.0 | 0.00 | 1.09 | 0.05 | 99 | 1011.7 |
| 20260508045503 | 9 | 0 | 0.0 | 0.0 | 0.00 | 1.09 | 0.05 | 99 | 1011.7 |
| 20260508045003 | 9 | 301 | 0.0 | 3.2 | 0.00 | 1.09 | 0.05 | 99 | 1011.8 |
| 20260508044524 | 9 | 288 | 0.0 | 3.2 | 0.00 | 1.09 | 0.05 | 99 | 1011.4 |
| 20260508044003 | 9 | 276 | 0.0 | 1.6 | 0.00 | 1.09 | 0.05 | 99 | 1011.4 |
| 20260508043504 | 9 | 213 | 0.0 | 1.6 | 0.00 | 1.09 | 0.05 | 99 | 1011.7 |
| 20260508043004 | 10 | 213 | 0.0 | 1.6 | 0.00 | 1.09 | 0.05 | 99 | 1011.5 |
| 20260508042525 | 10 | 0 | 0.0 | 0.0 | 0.00 | 1.09 | 0.05 | 99 | 1011.6 |
| 20260508042004 | 10 | 0 | 0.0 | 0.0 | 0.00 | 1.09 | 0.05 | 99 | 1011.7 |
| 20260508041504 | 10 | 213 | 0.0 | 1.6 | 0.00 | 1.09 | 0.05 | 99 | 1011.7 |
| 20260508041004 | 10 | 159 | 0.0 | 3.2 | 0.00 | 1.09 | 0.05 | 99 | 1011.7 |
| 20260508040524 | 10 | 150 | 0.0 | 3.2 | 0.00 | 1.09 | 0.05 | 99 | 1011.7 |
| 20260508040004 | 9 | 0 | 0.0 | 0.0 | 0.00 | 1.09 | 0.05 | 99 | 1011.8 |
| 20260508035503 | 10 | 0 | 0.0 | 0.0 | 0.00 | 1.09 | 0.05 | 99 | 1011.7 |
| 20260508035004 | 10 | 193 | 0.0 | 1.6 | 0.00 | 1.09 | 0.05 | 99 | 1011.6 |
| 20260508034503 | 9 | 209 | 0.0 | 3.2 | 0.00 | 1.09 | 0.05 | 99 | 1011.8 |
| 20260508034003 | 9 | 213 | 0.0 | 3.2 | 0.00 | 1.09 | 0.05 | 99 | 1012.0 |
| 20260508033503 | 9 | 0 | 0.0 | 0.0 | 0.00 | 1.09 | 0.05 | 99 | 1011.8 |
| 20260508033003 | 9 | 178 | 0.0 | 1.6 | 0.00 | 1.09 | 0.05 | 99 | 1011.9 |
| 20260508032503 | 9 | 178 | 0.0 | 1.6 | 0.00 | 1.09 | 0.05 | 99 | 1011.8 |
| 20260508032003 | 9 | 0 | 0.0 | 0.0 | 0.00 | 1.09 | 0.05 | 99 | 1012.1 |
| 20260508031503 | 9 | 0 | 0.0 | 0.0 | 0.00 | 1.09 | 0.05 | 99 | 1011.9 |
| 20260508031003 | 9 | 237 | 0.0 | 1.6 | 0.00 | 1.09 | 0.05 | 99 | 1012.1 |
| 20260508030503 | 9 | 234 | 1.6 | 3.2 | 0.00 | 1.09 | 0.05 | 99 | 1012.0 |
| 20260508030004 | 9 | 234 | 1.6 | 4.8 | 0.00 | 1.09 | 0.05 | 99 | 1012.2 |
| 20260508025504 | 9 | 236 | 0.0 | 4.8 | 0.00 | 1.09 | 0.05 | 99 | 1012.2 |
| 20260508025004 | 9 | 0 | 0.0 | 0.0 | 0.00 | 1.09 | 0.05 | 99 | 1012.1 |
| 20260508024504 | 9 | 0 | 0.0 | 0.0 | 0.00 | 1.09 | 0.05 | 99 | 1012.2 |
| 20260508024004 | 9 | 273 | 0.0 | 1.6 | 0.00 | 1.09 | 0.05 | 99 | 1012.5 |
| 20260508023525 | 9 | 267 | 0.0 | 1.6 | 0.00 | 1.09 | 0.05 | 99 | 1012.4 |
| 20260508023004 | 9 | 267 | 0.0 | 1.6 | 0.00 | 1.09 | 0.05 | 98 | 1012.4 |
| 20260508022504 | 10 | 0 | 0.0 | 0.0 | 0.00 | 1.09 | 0.05 | 98 | 1012.5 |
| 20260508022004 | 10 | 247 | 0.0 | 1.6 | 0.00 | 1.09 | 0.05 | 98 | 1012.6 |
| 20260508021504 | 10 | 247 | 0.0 | 1.6 | 0.00 | 1.09 | 0.05 | 98 | 1012.5 |
| 20260508021004 | 10 | 247 | 0.0 | 1.6 | 0.00 | 1.09 | 0.05 | 98 | 1012.5 |
| 20260508020504 | 10 | 11 | 0.0 | 4.8 | 0.00 | 1.09 | 0.05 | 98 | 1012.7 |
| 20260508020005 | 10 | 17 | 1.6 | 4.8 | 0.00 | 1.09 | 0.05 | 98 | 1012.4 |
| 20260508015504 | 10 | 54 | 0.0 | 1.6 | 0.00 | 1.09 | 0.05 | 98 | 1012.6 |
| 20260508015004 | 10 | 85 | 0.0 | 3.2 | 0.00 | 1.09 | 0.05 | 98 | 1012.9 |
| 20260508014504 | 10 | 86 | 0.0 | 3.2 | 0.00 | 1.09 | 0.05 | 98 | 1012.9 |
| 20260508014004 | 10 | 142 | 0.0 | 1.6 | 0.03 | 1.09 | 0.05 | 98 | 1012.9 |
| 20260508013504 | 10 | 0 | 0.0 | 0.0 | 0.03 | 1.09 | 0.05 | 98 | 1013.0 |
| 20260508013004 | 10 | 137 | 0.0 | 3.2 | 0.03 | 1.09 | 0.05 | 98 | 1012.9 |
| 20260508012504 | 10 | 142 | 0.0 | 3.2 | 0.05 | 1.09 | 0.05 | 98 | 1013.4 |
| 20260508012004 | 10 | 134 | 0.0 | 3.2 | 0.05 | 1.09 | 0.05 | 98 | 1013.2 |
| 20260508011504 | 10 | 126 | 0.0 | 3.2 | 0.05 | 1.09 | 0.05 | 99 | 1013.4 |
| 20260508011004 | 10 | 88 | 1.6 | 4.8 | 0.05 | 1.09 | 0.05 | 98 | 1013.3 |
| 20260508010504 | 10 | 66 | 1.6 | 4.8 | 0.05 | 1.09 | 0.05 | 99 | 1013.2 |
| 20260508010025 | 10 | 41 | 1.6 | 6.4 | 0.05 | 1.09 | 0.05 | 98 | 1013.4 |
| 20260508005504 | 10 | 18 | 3.2 | 11.3 | 0.05 | 1.09 | 0.05 | 99 | 1013.3 |
| 20260508005004 | 10 | 343 | 4.8 | 11.3 | 0.03 | 1.09 | 0.03 | 99 | 1013.3 |
| 20260508004525 | 10 | 307 | 6.4 | 12.9 | 0.03 | 1.09 | 0.03 | 99 | 1013.4 |
| 20260508004025 | 10 | 294 | 6.4 | 12.9 | 0.03 | 1.07 | 0.03 | 99 | 1013.5 |
| 20260508003504 | 10 | 263 | 3.2 | 6.4 | 0.03 | 1.07 | 0.03 | 99 | 1013.8 |
| 20260508003005 | 10 | 242 | 3.2 | 6.4 | 0.00 | 1.07 | 0.00 | 98 | 1014.1 |
| 20260508002504 | 10 | 232 | 1.6 | 4.8 | 0.00 | 1.04 | 0.00 | 98 | 1014.3 |
| 20260508002004 | 10 | 228 | 1.6 | 4.8 | 0.00 | 1.04 | 0.00 | 98 | 1014.3 |
| 20260508001525 | 10 | 206 | 1.6 | 6.4 | 0.00 | 1.04 | 0.00 | 98 | 1014.5 |
| 20260508001025 | 10 | 183 | 1.6 | 6.4 | 0.00 | 1.04 | 0.00 | 98 | 1014.3 |
| 20260508000525 | 10 | 163 | 1.6 | 6.4 | 0.00 | 1.04 | 0.00 | 98 | 1014.3 |
| 20260508000004 | 10 | 161 | 0.0 | 4.8 | 0.00 | 1.04 | 0.00 | 98 | 1014.0 |
| 20260507235504 | 10 | 160 | 0.0 | 4.8 | 0.00 | 1.04 | 1.04 | 98 | 1013.8 |
| 20260507235004 | 10 | 160 | 0.0 | 3.2 | 0.00 | 1.04 | 1.04 | 98 | 1013.9 |
| 20260507234504 | 10 | 115 | 0.0 | 1.6 | 0.00 | 1.04 | 1.04 | 98 | 1013.6 |
| 20260507234004 | 10 | 114 | 0.0 | 1.6 | 0.00 | 1.04 | 1.04 | 98 | 1013.7 |
| 20260507233504 | 10 | 114 | 0.0 | 1.6 | 0.00 | 1.04 | 1.04 | 98 | 1013.7 |
| 20260507233004 | 10 | 0 | 0.0 | 0.0 | 0.00 | 1.04 | 1.04 | 98 | 1013.7 |
| 20260507232504 | 10 | 0 | 0.0 | 0.0 | 0.00 | 1.04 | 1.04 | 97 | 1013.8 |
| 20260507232004 | 10 | 0 | 0.0 | 0.0 | 0.00 | 1.04 | 1.04 | 97 | 1013.9 |
| 20260507231505 | 10 | 113 | 0.0 | 1.6 | 0.00 | 1.04 | 1.04 | 97 | 1013.9 |
| 20260507231004 | 10 | 113 | 0.0 | 1.6 | 0.00 | 1.04 | 1.04 | 97 | 1013.9 |
| 20260507230504 | 10 | 63 | 0.0 | 3.2 | 0.00 | 1.04 | 1.04 | 97 | 1014.0 |
| 20260507230005 | 10 | 57 | 0.0 | 3.2 | 0.00 | 1.04 | 1.04 | 97 | 1013.9 |
| 20260507225504 | 10 | 0 | 0.0 | 0.0 | 0.00 | 1.04 | 1.04 | 97 | 1013.8 |
| 20260507225005 | 10 | 116 | 0.0 | 1.6 | 0.00 | 1.04 | 1.04 | 97 | 1014.0 |
| 20260507224505 | 10 | 116 | 1.6 | 1.6 | 0.00 | 1.04 | 1.04 | 97 | 1014.0 |
| 20260507224004 | 10 | 116 | 0.0 | 1.6 | 0.00 | 1.04 | 1.04 | 97 | 1014.0 |
| 20260507223504 | 10 | 0 | 0.0 | 0.0 | 0.00 | 1.04 | 1.04 | 97 | 1014.0 |
| 20260507223004 | 10 | 0 | 0.0 | 0.0 | 0.00 | 1.04 | 1.04 | 97 | 1014.2 |
| 20260507222504 | 10 | 0 | 0.0 | 0.0 | 0.00 | 1.04 | 1.04 | 97 | 1014.2 |
| 20260507222004 | 10 | 107 | 0.0 | 1.6 | 0.00 | 1.04 | 1.04 | 97 | 1014.2 |
| 20260507221504 | 10 | 94 | 0.0 | 1.6 | 0.00 | 1.04 | 1.04 | 96 | 1014.2 |
| 20260507221004 | 10 | 83 | 0.0 | 1.6 | 0.00 | 1.04 | 1.04 | 96 | 1014.1 |
| 20260507220504 | 10 | 105 | 0.0 | 1.6 | 0.00 | 1.04 | 1.04 | 97 | 1014.3 |
| 20260507220004 | 10 | 0 | 0.0 | 0.0 | 0.00 | 1.04 | 1.04 | 96 | 1014.2 |
| 20260507215504 | 10 | 0 | 0.0 | 0.0 | 0.00 | 1.04 | 1.04 | 96 | 1014.3 |
| 20260507215004 | 10 | 0 | 0.0 | 0.0 | 0.00 | 1.04 | 1.04 | 96 | 1014.1 |
| 20260507214504 | 10 | 0 | 0.0 | 0.0 | 0.00 | 1.04 | 1.04 | 96 | 1014.1 |
| 20260507214004 | 10 | 0 | 0.0 | 0.0 | 0.00 | 1.04 | 1.04 | 95 | 1014.1 |
| 20260507213504 | 11 | 0 | 0.0 | 0.0 | 0.00 | 1.04 | 1.04 | 95 | 1014.0 |
| 20260507213004 | 11 | 0 | 0.0 | 0.0 | 0.03 | 1.04 | 1.04 | 94 | 1014.2 |
| 20260507212504 | 11 | 0 | 0.0 | 0.0 | 0.05 | 1.04 | 1.04 | 94 | 1014.2 |
| 20260507212004 | 11 | 0 | 0.0 | 0.0 | 0.08 | 1.04 | 1.04 | 93 | 1014.1 |
| 20260507211504 | 11 | 132 | 0.0 | 1.6 | 0.10 | 1.04 | 1.04 | 93 | 1014.1 |
| 20260507211004 | 11 | 132 | 0.0 | 1.6 | 0.13 | 1.04 | 1.04 | 93 | 1014.3 |
| 20260507210504 | 11 | 131 | 0.0 | 1.6 | 0.18 | 1.04 | 1.04 | 93 | 1014.3 |
| 20260507210005 | 11 | 124 | 0.0 | 3.2 | 0.23 | 1.04 | 1.04 | 93 | 1014.0 |
| 20260507205504 | 11 | 113 | 1.6 | 6.4 | 0.28 | 1.04 | 1.04 | 93 | 1014.1 |
| 20260507205004 | 11 | 94 | 3.2 | 6.4 | 0.30 | 1.04 | 1.04 | 94 | 1014.0 |
| 20260507204505 | 11 | 83 | 3.2 | 6.4 | 0.33 | 1.04 | 1.04 | 93 | 1013.8 |
| 20260507204004 | 11 | 80 | 3.2 | 6.4 | 0.33 | 1.04 | 1.04 | 93 | 1013.7 |
| 20260507203504 | 11 | 72 | 1.6 | 4.8 | 0.36 | 1.04 | 1.04 | 93 | 1013.7 |
| 20260507203004 | 11 | 322 | 1.6 | 4.8 | 0.36 | 1.04 | 1.04 | 93 | 1013.7 |
| 20260507202504 | 11 | 297 | 3.2 | 6.4 | 0.33 | 1.02 | 1.02 | 93 | 1013.5 |
| 20260507202004 | 11 | 280 | 4.8 | 6.4 | 0.30 | 0.99 | 0.99 | 93 | 1013.4 |
| 20260507201504 | 11 | 276 | 4.8 | 6.4 | 0.28 | 0.97 | 0.97 | 93 | 1013.6 |
| 20260507201004 | 11 | 273 | 4.8 | 6.4 | 0.23 | 0.91 | 0.91 | 91 | 1013.3 |
| 20260507200504 | 11 | 249 | 4.8 | 9.7 | 0.18 | 0.86 | 0.86 | 91 | 1013.5 |
| 20260507200004 | 11 | 226 | 4.8 | 11.3 | 0.15 | 0.81 | 0.81 | 89 | 1013.5 |
| 20260507195504 | 11 | 223 | 6.4 | 11.3 | 0.10 | 0.79 | 0.79 | 88 | 1013.4 |
| 20260507195004 | 12 | 225 | 6.4 | 12.9 | 0.05 | 0.74 | 0.74 | 88 | 1013.4 |
| 20260507194504 | 12 | 231 | 8.0 | 16.1 | 0.05 | 0.71 | 0.71 | 85 | 1013.2 |
| 20260507194004 | 12 | 228 | 8.0 | 16.1 | 0.03 | 0.71 | 0.71 | 83 | 1013.1 |
| 20260507193504 | 13 | 233 | 9.7 | 22.5 | 0.00 | 0.69 | 0.69 | 80 | 1012.9 |
| 20260507193004 | 14 | 230 | 8.0 | 22.5 | 0.00 | 0.69 | 0.69 | 70 | 1012.9 |
| 20260507192525 | 15 | 209 | 4.8 | 17.7 | 0.00 | 0.69 | 0.69 | 66 | 1012.8 |
| 20260507192004 | 15 | 197 | 1.6 | 6.4 | 0.00 | 0.69 | 0.69 | 63 | 1012.5 |
| 20260507191504 | 15 | 187 | 1.6 | 6.4 | 0.00 | 0.69 | 0.69 | 61 | 1012.4 |
| 20260507191025 | 15 | 217 | 1.6 | 3.2 | 0.00 | 0.69 | 0.69 | 60 | 1012.1 |
| 20260507190504 | 15 | 239 | 1.6 | 4.8 | 0.00 | 0.69 | 0.69 | 60 | 1011.8 |
| 20260507190005 | 15 | 254 | 1.6 | 4.8 | 0.00 | 0.69 | 0.69 | 60 | 1011.8 |
| 20260507185504 | 15 | 263 | 3.2 | 9.7 | 0.00 | 0.69 | 0.69 | 61 | 1011.7 |
| 20260507185004 | 15 | 260 | 4.8 | 12.9 | 0.00 | 0.69 | 0.69 | 60 | 1011.6 |
| 20260507184504 | 15 | 265 | 6.4 | 17.7 | 0.00 | 0.69 | 0.69 | 59 | 1011.7 |
| 20260507184004 | 16 | 269 | 6.4 | 17.7 | 0.00 | 0.69 | 0.69 | 60 | 1011.6 |
| 20260507183504 | 16 | 268 | 8.0 | 14.5 | 0.00 | 0.69 | 0.69 | 59 | 1011.3 |
| 20260507183004 | 16 | 269 | 8.0 | 14.5 | 0.00 | 0.69 | 0.69 | 59 | 1011.6 |
| 20260507182504 | 16 | 276 | 9.7 | 20.9 | 0.00 | 0.69 | 0.69 | 59 | 1011.4 |
| 20260507182004 | 16 | 280 | 9.7 | 20.9 | 0.00 | 0.69 | 0.69 | 59 | 1011.3 |
| 20260507181504 | 16 | 283 | 9.7 | 14.5 | 0.00 | 0.69 | 0.69 | 59 | 1011.2 |
| 20260507181004 | 16 | 284 | 9.7 | 16.1 | 0.00 | 0.69 | 0.69 | 59 | 1011.2 |
| 20260507180504 | 16 | 290 | 11.3 | 16.1 | 0.00 | 0.69 | 0.69 | 59 | 1011.3 |
| 20260507180026 | 16 | 290 | 11.3 | 24.1 | 0.00 | 0.69 | 0.69 | 59 | 1011.2 |
| 20260507175525 | 16 | 278 | 11.3 | 24.1 | 0.00 | 0.69 | 0.69 | 59 | 1011.2 |
| 20260507175004 | 17 | 274 | 12.9 | 24.1 | 0.00 | 0.69 | 0.69 | 58 | 1011.0 |
| 20260507174504 | 17 | 285 | 11.3 | 24.1 | 0.00 | 0.69 | 0.69 | 56 | 1011.2 |
| 20260507174004 | 18 | 310 | 6.4 | 14.5 | 0.00 | 0.69 | 0.69 | 55 | 1011.1 |
| 20260507173504 | 18 | 325 | 4.8 | 11.3 | 0.00 | 0.69 | 0.69 | 49 | 1010.8 |
| 20260507173004 | 18 | 321 | 4.8 | 12.9 | 0.00 | 0.69 | 0.69 | 49 | 1010.7 |
| 20260507172504 | 18 | 322 | 4.8 | 12.9 | 0.00 | 0.69 | 0.69 | 52 | 1010.8 |
| 20260507172025 | 18 | 330 | 6.4 | 14.5 | 0.00 | 0.69 | 0.69 | 54 | 1010.6 |
| 20260507171504 | 18 | 338 | 4.8 | 14.5 | 0.00 | 0.69 | 0.69 | 53 | 1010.7 |
| 20260507171004 | 17 | 355 | 3.2 | 9.7 | 0.00 | 0.69 | 0.69 | 54 | 1010.6 |
| 20260507170504 | 17 | 358 | 3.2 | 6.4 | 0.00 | 0.69 | 0.69 | 52 | 1010.7 |
| 20260507170004 | 17 | 2 | 3.2 | 11.3 | 0.00 | 0.69 | 0.69 | 54 | 1010.5 |
| 20260507165525 | 17 | 23 | 3.2 | 11.3 | 0.00 | 0.69 | 0.69 | 53 | 1010.6 |
| 20260507165025 | 17 | 47 | 4.8 | 16.1 | 0.00 | 0.69 | 0.69 | 54 | 1010.7 |
| 20260507164504 | 17 | 57 | 6.4 | 16.1 | 0.00 | 0.69 | 0.69 | 53 | 1010.7 |
| 20260507164004 | 17 | 62 | 4.8 | 16.1 | 0.00 | 0.69 | 0.69 | 56 | 1010.8 |
| 20260507163504 | 18 | 54 | 4.8 | 17.7 | 0.00 | 0.69 | 0.69 | 53 | 1010.7 |
| 20260507163004 | 17 | 56 | 8.0 | 22.5 | 0.00 | 0.69 | 0.69 | 57 | 1010.7 |
| 20260507162504 | 17 | 55 | 9.7 | 24.1 | 0.00 | 0.69 | 0.69 | 57 | 1010.8 |
| 20260507162004 | 17 | 52 | 8.0 | 24.1 | 0.00 | 0.69 | 0.69 | 55 | 1010.7 |
| 20260507161525 | 17 | 57 | 8.0 | 20.9 | 0.00 | 0.69 | 0.69 | 58 | 1010.7 |
| 20260507161004 | 17 | 63 | 9.7 | 25.7 | 0.00 | 0.69 | 0.69 | 60 | 1010.8 |
| 20260507160504 | 16 | 65 | 11.3 | 25.7 | 0.00 | 0.69 | 0.69 | 58 | 1010.9 |
| 20260507160005 | 16 | 66 | 11.3 | 25.7 | 0.00 | 0.69 | 0.69 | 57 | 1010.9 |
| 20260507155504 | 16 | 63 | 9.7 | 24.1 | 0.00 | 0.69 | 0.69 | 55 | 1011.0 |
| 20260507155004 | 16 | 59 | 8.0 | 24.1 | 0.00 | 0.69 | 0.69 | 55 | 1010.8 |
| 20260507154504 | 16 | 60 | 6.4 | 14.5 | 0.00 | 0.69 | 0.69 | 54 | 1010.9 |
| 20260507154004 | 17 | 48 | 6.4 | 12.9 | 0.00 | 0.69 | 0.69 | 58 | 1011.0 |
| 20260507153504 | 17 | 46 | 4.8 | 12.9 | 0.00 | 0.69 | 0.69 | 54 | 1011.0 |
| 20260507153004 | 16 | 47 | 4.8 | 14.5 | 0.00 | 0.69 | 0.69 | 56 | 1011.1 |
| 20260507152504 | 17 | 28 | 4.8 | 14.5 | 0.00 | 0.69 | 0.69 | 55 | 1011.1 |
| 20260507152004 | 16 | 15 | 4.8 | 12.9 | 0.00 | 0.69 | 0.69 | 58 | 1010.9 |
| 20260507151504 | 15 | 23 | 4.8 | 11.3 | 0.00 | 0.69 | 0.69 | 63 | 1011.2 |
| 20260507151004 | 15 | 44 | 3.2 | 11.3 | 0.00 | 0.69 | 0.69 | 61 | 1011.3 |
| 20260507150504 | 15 | 15 | 3.2 | 6.4 | 0.03 | 0.69 | 0.69 | 62 | 1011.5 |
| 20260507150005 | 15 | 331 | 3.2 | 6.4 | 0.05 | 0.69 | 0.69 | 65 | 1011.5 |
| 20260507145525 | 15 | 41 | 1.6 | 6.4 | 0.05 | 0.69 | 0.69 | 68 | 1011.6 |
| 20260507145004 | 15 | 67 | 3.2 | 6.4 | 0.05 | 0.69 | 0.69 | 60 | 1011.6 |
| 20260507144504 | 16 | 297 | 4.8 | 11.3 | 0.05 | 0.69 | 0.69 | 59 | 1011.8 |
| 20260507144004 | 16 | 253 | 6.4 | 14.5 | 0.05 | 0.69 | 0.69 | 45 | 1011.6 |
| 20260507143504 | 15 | 213 | 4.8 | 14.5 | 0.05 | 0.69 | 0.69 | 56 | 1011.8 |
| 20260507143025 | 15 | 190 | 4.8 | 16.1 | 0.05 | 0.69 | 0.69 | 62 | 1011.9 |
| 20260507142525 | 15 | 177 | 6.4 | 16.1 | 0.05 | 0.66 | 0.66 | 57 | 1011.7 |
| 20260507142004 | 14 | 156 | 4.8 | 16.1 | 0.05 | 0.66 | 0.66 | 65 | 1011.9 |
| 20260507141504 | 14 | 160 | 4.8 | 12.9 | 0.05 | 0.66 | 0.66 | 66 | 1011.8 |
| 20260507141004 | 14 | 160 | 4.8 | 14.5 | 0.05 | 0.66 | 0.66 | 68 | 1012.0 |
| 20260507140504 | 15 | 154 | 4.8 | 22.5 | 0.05 | 0.66 | 0.66 | 66 | 1012.2 |
| 20260507140004 | 16 | 137 | 1.6 | 22.5 | 0.03 | 0.61 | 0.61 | 62 | 1012.0 |
| 20260507135504 | 16 | 335 | 1.6 | 3.2 | 0.03 | 0.61 | 0.61 | 59 | 1011.7 |
| 20260507135004 | 16 | 350 | 1.6 | 11.3 | 0.05 | 0.61 | 0.61 | 65 | 1011.2 |
| 20260507134504 | 16 | 357 | 4.8 | 14.5 | 0.33 | 0.61 | 0.61 | 70 | 1011.4 |
| 20260507134004 | 16 | 349 | 8.0 | 14.5 | 0.61 | 0.61 | 0.61 | 65 | 1011.3 |
| 20260507133504 | 15 | 341 | 8.0 | 17.7 | 0.61 | 0.61 | 0.61 | 69 | 1011.2 |
| 20260507133004 | 14 | 344 | 8.0 | 17.7 | 0.61 | 0.61 | 0.61 | 73 | 1011.4 |
| 20260507132525 | 14 | 345 | 4.8 | 12.9 | 0.61 | 0.61 | 0.61 | 70 | 1011.5 |
| 20260507132004 | 15 | 313 | 4.8 | 9.7 | 0.61 | 0.61 | 0.61 | 66 | 1011.6 |
| 20260507131504 | 15 | 293 | 4.8 | 9.7 | 0.61 | 0.61 | 0.61 | 71 | 1011.7 |
| 20260507131004 | 13 | 294 | 3.2 | 9.7 | 0.61 | 0.61 | 0.61 | 69 | 1011.6 |
| 20260507130504 | 13 | 332 | 3.2 | 6.4 | 0.61 | 0.61 | 0.61 | 73 | 1011.5 |
| 20260507130004 | 13 | 24 | 3.2 | 11.3 | 0.61 | 0.61 | 0.61 | 79 | 1011.3 |
| 20260507125504 | 13 | 8 | 6.4 | 22.5 | 0.58 | 0.58 | 0.58 | 72 | 1011.4 |
| 20260507125004 | 12 | 90 | 11.3 | 38.6 | 0.56 | 0.56 | 0.56 | 71 | 1011.6 |
| 20260507124504 | 16 | 143 | 8.0 | 38.6 | 0.30 | 0.30 | 0.30 | 83 | 1012.7 |
| 20260507124004 | 18 | 226 | 3.2 | 6.4 | 0.00 | 0.00 | 0.00 | 53 | 1011.7 |
| 20260507123525 | 18 | 261 | 3.2 | 9.7 | 0.00 | 0.00 | 0.00 | 46 | 1011.5 |
| 20260507123004 | 18 | 281 | 3.2 | 9.7 | 0.00 | 0.00 | 0.00 | 47 | 1011.4 |
| 20260507122504 | 18 | 248 | 1.6 | 9.7 | 0.00 | 0.00 | 0.00 | 45 | 1011.4 |